Time;durP1;ratioP1;P1;durP2;ratioP2;P2;SDS_P1;SDS_P2;PMS_P1;PMS_P2;Temp;Humidity;BMP_temperature;BMP_pressure;BME280_temperature;BME280_humidity;BME280_pressure;Samples;Min_cycle;Max_cycle;Signal;HPM_P1;HPM_P2
2023/12/29 00:01:45;;;;;;;1.92;0.90;;;;;;;19.09;52.99;96747.72;21067382;28;20461;-56
2023/12/29 00:12:05;;;;;;;1.98;0.90;;;;;;;19.06;52.85;96736.78;21095711;28;20067;-55
2023/12/29 00:22:27;;;;;;;0.80;0.80;;;;;;;19.02;52.71;96742.03;21044190;28;20456;-55
2023/12/29 00:32:47;;;;;;;0.90;0.90;;;;;;;19.00;52.75;96732.66;21082349;28;20397;-55
2023/12/29 00:43:06;;;;;;;2.05;0.70;;;;;;;18.97;52.57;96717.88;21046796;28;20109;-56
2023/12/29 00:53:26;;;;;;;1.13;0.88;;;;;;;18.94;52.40;96708.53;21052917;28;20049;-56
2023/12/29 01:03:45;;;;;;;0.85;0.70;;;;;;;18.92;52.33;96726.19;21046191;28;20459;-56
2023/12/29 01:14:05;;;;;;;1.50;0.98;;;;;;;18.89;52.44;96722.19;21056895;28;20074;-54
2023/12/29 01:24:26;;;;;;;0.73;0.73;;;;;;;18.87;52.39;96731.72;21043344;28;20052;-56
2023/12/29 01:34:45;;;;;;;0.65;0.60;;;;;;;18.84;52.22;96729.69;21038162;28;20052;-55
2023/12/29 01:45:06;;;;;;;0.90;0.80;;;;;;;18.83;52.18;96725.41;21069500;28;20067;-56
2023/12/29 01:55:26;;;;;;;0.80;0.80;;;;;;;18.80;52.24;96745.72;21028859;28;20048;-56
2023/12/29 02:05:46;;;;;;;0.85;0.60;;;;;;;18.80;52.29;96734.13;21071781;28;20048;-56
2023/12/29 02:16:11;;;;;;;0.70;0.70;;;;;;;18.76;52.16;96717.78;21038703;28;20086;-55
2023/12/29 02:26:31;;;;;;;0.75;0.70;;;;;;;18.72;52.06;96687.94;21001353;28;20048;-55
2023/12/29 02:36:51;;;;;;;0.60;0.60;;;;;;;18.71;52.24;96674.75;21042916;28;20048;-55
2023/12/29 02:47:11;;;;;;;0.70;0.60;;;;;;;18.69;52.27;96653.47;21060501;28;20063;-56
2023/12/29 02:57:30;;;;;;;0.90;0.77;;;;;;;18.68;52.16;96646.50;21048686;28;20056;-55
2023/12/29 03:07:49;;;;;;;0.70;0.70;;;;;;;18.65;52.04;96644.44;21056584;28;20082;-56
2023/12/29 03:18:09;;;;;;;0.77;0.70;;;;;;;18.64;52.16;96661.75;21043448;28;20047;-56
2023/12/29 03:28:28;;;;;;;0.70;0.60;;;;;;;18.63;52.22;96646.69;21068292;28;20408;-56
2023/12/29 03:38:47;;;;;;;0.65;0.65;;;;;;;18.60;52.18;96616.84;21061716;28;20048;-54
2023/12/29 03:49:07;;;;;;;1.60;0.75;;;;;;;18.58;52.21;96595.56;21075911;28;20762;-54
2023/12/29 03:59:27;;;;;;;0.70;0.70;;;;;;;18.55;52.08;96620.50;21064091;28;20530;-54
2023/12/29 04:09:47;;;;;;;0.70;0.70;;;;;;;18.53;52.15;96607.34;21060853;28;20071;-53
2023/12/29 04:20:06;;;;;;;0.70;0.70;;;;;;;18.51;52.11;96576.41;21041133;28;20534;-55
2023/12/29 04:30:26;;;;;;;0.60;0.60;;;;;;;18.47;52.26;96554.69;21109023;28;20048;-54
2023/12/29 04:40:48;;;;;;;0.80;0.80;;;;;;;18.47;52.31;96553.91;20992945;28;20396;-54
2023/12/29 04:51:07;;;;;;;0.45;0.45;;;;;;;18.46;52.12;96534.19;21041433;28;20063;-54
2023/12/29 05:01:28;;;;;;;0.85;0.70;;;;;;;18.44;52.33;96520.25;21042362;28;20044;-54
2023/12/29 05:11:47;;;;;;;0.68;0.68;;;;;;;18.45;52.23;96521.06;21093286;28;20044;-54
2023/12/29 05:22:07;;;;;;;0.90;0.80;;;;;;;18.44;53.15;96533.72;21069519;28;20043;-54
2023/12/29 05:32:26;;;;;;;0.63;0.60;;;;;;;18.43;53.09;96555.66;21058414;28;20044;-55
2023/12/29 05:42:46;;;;;;;3.03;0.70;;;;;;;18.46;53.04;96552.31;21065382;28;20044;-55
2023/12/29 05:53:06;;;;;;;1.02;0.73;;;;;;;18.46;52.91;96561.19;21047495;28;20095;-58
2023/12/29 06:03:26;;;;;;;0.68;0.60;;;;;;;18.49;52.73;96560.53;21065100;28;20057;-59
2023/12/29 06:13:46;;;;;;;4.15;1.55;;;;;;;18.54;52.73;96565.78;21077887;28;20059;-58
2023/12/29 06:24:06;;;;;;;9.10;2.58;;;;;;;18.61;52.65;96559.88;21098549;28;20047;-59
2023/12/29 06:34:25;;;;;;;10.73;2.92;;;;;;;18.71;52.84;96564.91;21140562;28;20086;-59
2023/12/29 06:44:46;;;;;;;12.35;3.55;;;;;;;18.82;52.91;96542.97;21129312;28;20066;-59
2023/12/29 06:55:07;;;;;;;6.47;2.30;;;;;;;18.89;51.84;96560.25;21086697;28;20048;-59
2023/12/29 07:05:26;;;;;;;11.30;3.30;;;;;;;18.91;51.81;96563.41;21015157;28;20109;-60
2023/12/29 07:15:48;;;;;;;7.97;3.45;;;;;;;18.98;51.59;96554.03;21079964;28;20060;-59
2023/12/29 07:26:08;;;;;;;6.40;2.95;;;;;;;19.02;50.49;96554.97;21084662;28;20110;-59
2023/12/29 07:36:27;;;;;;;10.50;2.90;;;;;;;19.08;50.47;96561.75;21095173;28;20075;-59
2023/12/29 07:46:47;;;;;;;9.75;2.70;;;;;;;19.19;50.32;96595.38;21157309;28;20052;-59
2023/12/29 07:57:06;;;;;;;6.85;2.88;;;;;;;19.25;50.29;96579.75;21110731;28;20079;-59
2023/12/29 08:07:26;;;;;;;6.05;2.63;;;;;;;19.33;50.19;96573.50;21091064;28;20067;-59
2023/12/29 08:17:45;;;;;;;8.05;2.80;;;;;;;19.40;50.00;96578.38;21064411;28;20056;-56
2023/12/29 08:28:05;;;;;;;6.28;2.47;;;;;;;19.43;50.01;96567.72;21056598;28;20105;-56
2023/12/29 08:38:24;;;;;;;5.18;2.08;;;;;;;19.52;49.82;96587.38;21063051;28;20052;-56
2023/12/29 08:48:44;;;;;;;6.68;2.58;;;;;;;19.64;49.66;96610.16;21124629;28;20054;-56
2023/12/29 08:59:03;;;;;;;4.45;1.88;;;;;;;19.69;49.42;96599.94;21145954;28;20047;-56
2023/12/29 09:09:23;;;;;;;3.90;2.25;;;;;;;19.73;49.42;96619.81;21083064;28;20066;-56
2023/12/29 09:19:42;;;;;;;3.97;2.28;;;;;;;19.78;49.25;96635.06;21110953;28;20040;-56
2023/12/29 09:30:02;;;;;;;6.25;2.33;;;;;;;19.87;49.16;96630.34;21095719;28;20043;-60
2023/12/29 09:40:22;;;;;;;4.97;2.20;;;;;;;19.94;49.05;96649.56;21064328;28;20051;-59
2023/12/29 09:50:42;;;;;;;4.85;2.17;;;;;;;19.97;48.89;96644.59;20982538;28;20052;-59
2023/12/29 10:01:01;;;;;;;2.88;2.00;;;;;;;20.03;48.75;96629.75;21046566;28;20056;-59
2023/12/29 10:11:22;;;;;;;3.25;2.20;;;;;;;20.09;48.49;96610.31;21015237;28;20109;-57
2023/12/29 10:21:58;;;;;;;2.40;1.60;;;;;;;20.14;48.51;96612.81;21081602;28;20043;-60
2023/12/29 10:32:18;;;;;;;4.15;1.58;;;;;;;20.14;48.52;96603.91;21048015;28;20048;-56
2023/12/29 10:42:51;;;;;;;3.08;1.75;;;;;;;20.18;48.47;96595.91;21045080;28;20052;-57
2023/12/29 10:53:16;;;;;;;2.88;1.80;;;;;;;20.24;48.39;96594.59;21066409;28;20048;-56
2023/12/29 11:03:37;;;;;;;2.03;1.60;;;;;;;20.24;48.35;96600.00;21067034;28;20056;-56
2023/12/29 11:13:56;;;;;;;3.78;1.98;;;;;;;20.22;48.32;96578.69;21027385;28;20740;-56
2023/12/29 11:24:16;;;;;;;2.15;1.38;;;;;;;20.24;48.38;96572.94;21064607;28;20059;-56
2023/12/29 11:34:42;;;;;;;2.63;1.42;;;;;;;20.19;48.59;96565.84;21078304;28;20048;-56
2023/12/29 11:45:24;;;;;;;2.40;1.50;;;;;;;20.18;48.47;96569.66;21078517;28;20515;-59
2023/12/29 11:55:44;;;;;;;2.10;1.52;;;;;;;20.17;48.44;96551.88;21083273;28;20463;-60
2023/12/29 12:06:03;;;;;;;1.98;1.30;;;;;;;20.14;48.51;96531.66;21077284;28;20462;-59
2023/12/29 12:16:49;;;;;;;1.52;1.33;;;;;;;20.12;48.57;96517.69;21084725;28;20389;-60
2023/12/29 12:27:10;;;;;;;1.77;1.40;;;;;;;20.09;48.66;96514.84;21057931;28;20055;-59
2023/12/29 12:37:30;;;;;;;1.55;1.20;;;;;;;20.10;48.69;96516.44;21145869;28;20059;-60
2023/12/29 12:47:55;;;;;;;1.65;1.42;;;;;;;20.10;48.67;96506.41;21147693;28;20048;-58
2023/12/29 12:58:14;;;;;;;1.67;1.08;;;;;;;20.08;48.71;96514.06;21119023;28;20466;-59
2023/12/29 13:08:34;;;;;;;2.63;1.35;;;;;;;20.06;48.75;96515.53;21027120;28;20044;-59
2023/12/29 13:18:54;;;;;;;1.30;1.02;;;;;;;20.00;48.77;96506.84;21085454;28;20089;-59
2023/12/29 13:29:14;;;;;;;1.55;1.10;;;;;;;19.94;47.92;96508.19;21073100;28;20106;-60
2023/12/29 13:40:06;;;;;;;1.70;1.20;;;;;;;19.89;48.65;96502.97;21080963;28;20564;-60
2023/12/29 13:50:26;;;;;;;1.45;1.25;;;;;;;19.87;48.85;96511.41;21030664;28;20044;-59
2023/12/29 14:00:54;;;;;;;1.60;1.10;;;;;;;19.85;47.45;96508.25;21042046;28;20052;-60
2023/12/29 14:11:13;;;;;;;1.85;1.10;;;;;;;19.81;46.57;96528.97;21050835;28;20044;-65
2023/12/29 14:21:33;;;;;;;0.90;0.73;;;;;;;17.89;39.42;96537.22;21045056;28;20053;-58
2023/12/29 14:31:55;;;;;;;3.38;1.00;;;;;;;18.45;43.33;96524.53;21043504;28;20109;-60
2023/12/29 14:42:16;;;;;;;4.65;0.90;;;;;;;19.21;43.19;96524.81;21043670;28;20049;-60
2023/12/29 14:52:35;;;;;;;3.20;0.98;;;;;;;19.37;44.16;96523.13;21052623;28;20048;-57
2023/12/29 15:02:56;;;;;;;2.60;1.13;;;;;;;19.48;45.08;96529.72;21071994;28;20052;-58
2023/12/29 15:13:16;;;;;;;1.58;0.98;;;;;;;19.56;45.53;96534.25;21057932;28;20163;-67
2023/12/29 15:23:36;;;;;;;1.55;0.98;;;;;;;19.62;46.33;96528.63;21057305;28;20102;-65
2023/12/29 15:33:55;;;;;;;1.50;0.80;;;;;;;19.66;46.65;96527.66;21047612;28;20059;-66
2023/12/29 15:44:15;;;;;;;1.95;1.10;;;;;;;19.72;46.98;96512.06;21060951;28;20104;-62
2023/12/29 15:54:34;;;;;;;1.58;0.80;;;;;;;19.76;47.24;96518.38;21038074;28;20067;-63
2023/12/29 16:04:54;;;;;;;3.15;0.90;;;;;;;19.79;47.63;96514.22;21082055;28;20043;-61
2023/12/29 16:15:14;;;;;;;2.45;0.90;;;;;;;19.85;47.83;96508.25;21050584;28;20051;-65
2023/12/29 16:25:33;;;;;;;2.05;0.70;;;;;;;19.83;47.93;96504.31;21037361;28;20092;-65
2023/12/29 16:35:53;;;;;;;1.10;1.00;;;;;;;19.88;47.94;96514.94;21051257;28;20051;-62
2023/12/29 16:46:12;;;;;;;1.55;1.02;;;;;;;19.92;47.99;96518.53;21053126;28;20048;-59
2023/12/29 16:56:31;;;;;;;1.48;0.70;;;;;;;20.01;48.40;96510.34;21059633;28;20151;-62
2023/12/29 17:06:51;;;;;;;0.85;0.82;;;;;;;20.06;48.39;96499.31;21030878;28;20052;-56
2023/12/29 17:17:10;;;;;;;0.70;0.70;;;;;;;20.12;48.75;96495.28;21047654;28;20082;-58
2023/12/29 17:27:30;;;;;;;1.65;0.80;;;;;;;20.18;48.52;96491.22;21027887;28;20051;-59
2023/12/29 17:37:50;;;;;;;1.70;1.10;;;;;;;20.23;48.74;96495.63;21063682;28;20399;-61
2023/12/29 17:48:10;;;;;;;2.00;0.90;;;;;;;20.28;48.68;96501.59;21011083;28;20044;-60
2023/12/29 17:58:29;;;;;;;1.15;0.82;;;;;;;20.29;48.68;96507.81;21053409;28;20052;-60
2023/12/29 18:08:50;;;;;;;0.70;0.68;;;;;;;20.30;48.46;96499.34;21042271;28;20048;-57
2023/12/29 18:19:10;;;;;;;1.35;0.80;;;;;;;20.34;48.37;96491.34;21038185;28;20047;-56
2023/12/29 18:29:29;;;;;;;0.93;0.75;;;;;;;20.42;48.39;96481.56;21030136;28;20130;-65
2023/12/29 18:39:50;;;;;;;3.30;0.80;;;;;;;20.46;48.27;96502.19;21028813;28;20542;-57
2023/12/29 18:50:11;;;;;;;3.22;0.80;;;;;;;20.45;48.26;96500.63;21026402;28;20109;-57
2023/12/29 19:00:31;;;;;;;1.42;0.70;;;;;;;20.42;48.42;96495.88;21043069;28;20067;-59
2023/12/29 19:10:51;;;;;;;2.55;0.70;;;;;;;20.42;48.72;96485.03;21058392;28;20044;-60
2023/12/29 19:21:10;;;;;;;4.65;3.90;;;;;;;20.53;48.67;96483.47;21051280;28;20044;-66
2023/12/29 19:31:31;;;;;;;6.07;2.88;;;;;;;20.51;47.93;96487.66;21051221;28;20040;-63
2023/12/29 19:41:51;;;;;;;6.00;3.00;;;;;;;20.52;48.53;96498.16;21039197;28;20543;-57
2023/12/29 19:52:11;;;;;;;4.18;2.70;;;;;;;20.55;48.48;96504.78;21079656;28;20583;-62
2023/12/29 20:02:31;;;;;;;5.90;2.63;;;;;;;20.53;48.60;96493.53;21043644;28;20056;-63
2023/12/29 20:12:50;;;;;;;2.85;2.42;;;;;;;20.50;48.84;96478.75;21045945;28;20077;-62
2023/12/29 20:23:11;;;;;;;3.90;2.10;;;;;;;20.47;48.82;96475.94;21077109;28;20036;-60
2023/12/29 20:33:30;;;;;;;2.75;2.20;;;;;;;20.44;49.00;96471.97;21049153;28;20045;-60
2023/12/29 20:43:54;;;;;;;2.88;2.40;;;;;;;20.43;49.14;96469.63;21033360;28;20059;-60
2023/12/29 20:54:15;;;;;;;2.95;2.17;;;;;;;20.40;49.19;96478.41;21057605;28;20416;-60
2023/12/29 21:04:35;;;;;;;2.72;2.15;;;;;;;20.37;49.37;96463.63;21063515;28;20408;-56
2023/12/29 21:14:55;;;;;;;2.58;2.13;;;;;;;20.35;50.11;96458.56;21071778;28;20105;-56
2023/12/29 21:25:14;;;;;;;3.42;2.50;;;;;;;20.34;50.28;96454.25;21042125;28;20052;-56
2023/12/29 21:35:34;;;;;;;3.28;2.25;;;;;;;20.32;50.48;96445.69;21063998;28;20047;-58
2023/12/29 21:45:54;;;;;;;89.45;37.60;;;;;;;20.25;50.60;96442.78;21051172;28;20045;-58
2023/12/29 21:56:14;;;;;;;51.50;20.73;;;;;;;20.14;50.52;96428.91;21043578;28;20060;-57
2023/12/29 22:06:35;;;;;;;37.00;16.10;;;;;;;20.05;50.67;96428.22;20942547;28;20048;-57
2023/12/29 22:16:54;;;;;;;35.92;14.15;;;;;;;20.00;50.75;96412.22;21068319;28;20044;-61
2023/12/29 22:27:14;;;;;;;27.00;12.88;;;;;;;19.98;50.75;96410.97;21087775;28;20051;-60
2023/12/29 22:37:33;;;;;;;30.08;12.05;;;;;;;19.93;50.70;96404.66;21082506;28;20059;-60
2023/12/29 22:47:53;;;;;;;24.73;11.00;;;;;;;19.87;50.78;96403.28;21087566;28;20048;-60
2023/12/29 22:58:12;;;;;;;21.63;9.95;;;;;;;19.84;50.31;96408.59;21112169;28;20052;-60
2023/12/29 23:08:32;;;;;;;22.50;9.57;;;;;;;19.80;50.34;96402.25;21104399;28;20057;-60
2023/12/29 23:18:54;;;;;;;15.73;9.38;;;;;;;19.75;50.31;96403.25;21097370;28;20044;-60
2023/12/29 23:29:14;;;;;;;18.38;9.63;;;;;;;19.73;50.38;96409.00;21106675;28;20043;-60
2023/12/29 23:39:33;;;;;;;17.33;8.25;;;;;;;19.72;50.35;96395.84;21132166;28;20048;-60
2023/12/29 23:49:53;;;;;;;16.27;8.00;;;;;;;19.67;50.42;96394.09;21118097;28;20516;-60
